aviador You're here:

KOLM Decoded Metar

OLYMPIA in WA, USA
Report Time2018-02-18 21:36:00
UTC Time2018-02-18 21:43:57
Flight Rules lifr LIFR
Wind040° at 08 kt
W.Decomp.*RWY 35: 6.9 kt HW 4.1 kt RCW
RWY 08: 4.1 kt HW 6.9 kt LCW
W.Rank040° ranks 12
Current wind is above 040° avg. (5.5)
Visibility1207 m
Phenomena:Light Snow
Mist
Clouds:Few 004 Hf
Overcast 008 Hf
Ceiling800 ft
Temp01°C (ISA -14)
Dew Point01°C (100% RH)
AAT-3.7°C
QNH1007 hPa
Density Alt-1,175 ft
Elevation190 ft
Report Wrong Elevation
Raw Report
KOLM 182136Z 04008KT 3/4SM -SN BR FEW004 OVC008 01/01 A2973 RMK
AO2 UPE2059B15E16RAB14E19SNB19 P0002 T00060006 $=

Extra information for KOLM:More info

Metar Taf Metar & Taf Last 4 Metars F.Rules Stats Wind Profile Meteogram Temp Stats Airport Information Weather charts Add Link Nearby VenuesMetar ALERT Operation Metar Decoded Social comments

AIRNAV info for KOLM